Time;durP1;ratioP1;P1;durP2;ratioP2;P2;SDS_P1;SDS_P2;PMS_P1;PMS_P2;Temp;Humidity;BMP_temperature;BMP_pressure;BME280_temperature;BME280_humidity;BME280_pressure;Samples;Min_cycle;Max_cycle;Signal;HPM_P1;HPM_P2
2024/02/14 00:04:31;;;;;;;7.00;6.30;;;2.30;99.90;;;2.93;100.00;98410.38;10473317;28;20228;-66
2024/02/14 00:09:34;;;;;;;8.80;6.67;;;2.30;99.90;;;3.04;100.00;98403.81;10474679;28;20228;-66
2024/02/14 00:14:37;;;;;;;7.10;5.87;;;2.30;99.90;;;2.86;100.00;98405.47;10473557;28;20234;-66
2024/02/14 00:19:42;;;;;;;6.53;5.93;;;2.10;99.90;;;2.69;100.00;98397.19;10473034;28;20323;-66
2024/02/14 00:24:45;;;;;;;6.60;6.03;;;2.10;99.90;;;2.66;100.00;98401.94;10469121;28;20228;-66
2024/02/14 00:29:48;;;;;;;6.27;5.77;;;2.00;99.90;;;2.61;100.00;98405.66;10471997;28;20236;-67
2024/02/14 00:34:53;;;;;;;6.53;5.93;;;2.00;99.90;;;2.58;100.00;98405.38;10470607;28;20228;-67
2024/02/14 00:39:57;;;;;;;7.27;6.57;;;1.90;99.90;;;2.58;100.00;98402.84;10468830;28;20228;-66
2024/02/14 00:45:01;;;;;;;5.87;5.37;;;1.80;99.90;;;2.59;100.00;98407.13;10474727;28;20296;-66
2024/02/14 00:50:07;;;;;;;6.57;5.87;;;1.90;99.90;;;2.69;100.00;98414.84;10473381;28;20794;-67
2024/02/14 00:55:10;;;;;;;7.13;5.70;;;1.90;99.90;;;2.70;100.00;98414.09;10472940;28;20731;-67
2024/02/14 01:00:17;;;;;;;6.80;6.10;;;1.90;99.90;;;2.66;100.00;98409.53;10472276;28;20277;-66
2024/02/14 01:05:21;;;;;;;7.03;6.33;;;1.90;99.90;;;2.67;100.00;98413.81;10470099;28;20220;-67
2024/02/14 01:10:24;;;;;;;6.73;5.90;;;1.90;99.90;;;2.55;100.00;98412.63;10472019;28;20307;-67
2024/02/14 01:15:27;;;;;;;6.50;6.00;;;1.80;99.90;;;2.54;100.00;98422.56;10471949;28;20228;-67
2024/02/14 01:20:32;;;;;;;6.07;5.47;;;1.80;99.90;;;2.45;100.00;98415.00;10469125;28;20231;-67
2024/02/14 01:25:35;;;;;;;6.20;5.60;;;1.70;99.90;;;2.40;100.00;98421.22;10470646;28;20358;-67
2024/02/14 01:30:38;;;;;;;5.70;5.30;;;1.70;99.90;;;2.41;100.00;98407.91;10469459;28;20742;-67
2024/02/14 01:35:43;;;;;;;6.20;5.67;;;1.70;99.90;;;2.38;100.00;98410.13;10471012;28;20233;-67
2024/02/14 01:40:46;;;;;;;6.53;5.67;;;1.80;99.90;;;2.56;100.00;98406.84;10470043;28;20307;-67
2024/02/14 01:45:50;;;;;;;6.60;6.00;;;1.90;99.90;;;2.74;100.00;98409.34;10472545;28;20618;-67
2024/02/14 01:50:55;;;;;;;8.37;6.23;;;2.00;99.90;;;2.70;100.00;98419.16;10469950;28;20323;-67
2024/02/14 01:56:00;;;;;;;6.60;5.93;;;2.00;99.90;;;2.67;100.00;98434.00;10471123;28;20255;-68
2024/02/14 02:01:04;;;;;;;6.63;6.03;;;2.00;99.90;;;3.06;100.00;98431.00;10471053;28;20226;-67
2024/02/14 02:06:09;;;;;;;6.67;6.10;;;2.10;99.90;;;2.92;100.00;98411.13;10467049;28;20290;-67
2024/02/14 02:11:12;;;;;;;6.37;5.87;;;2.10;99.90;;;2.68;100.00;98397.03;10469891;28;20232;-67
2024/02/14 02:16:15;;;;;;;6.80;6.20;;;2.00;99.90;;;2.34;100.00;98395.41;10471276;28;20223;-67
2024/02/14 02:21:23;;;;;;;6.37;5.73;;;1.80;99.90;;;2.39;100.00;98389.19;10466641;28;20598;-67
2024/02/14 02:26:28;;;;;;;5.93;5.43;;;1.90;99.90;;;2.53;100.00;98388.88;10468767;28;20710;-67
2024/02/14 02:31:31;;;;;;;5.93;5.43;;;2.10;99.90;;;2.75;100.00;98399.41;10472212;28;20255;-67
2024/02/14 02:36:34;;;;;;;6.43;5.80;;;2.20;99.90;;;3.00;100.00;98405.13;10472452;28;20608;-66
2024/02/14 02:41:39;;;;;;;6.47;5.20;;;2.30;99.90;;;2.89;100.00;98401.63;10474258;28;20278;-67
2024/02/14 02:46:43;;;;;;;5.87;5.27;;;2.30;99.90;;;2.84;100.00;98405.34;10468610;28;20232;-67
2024/02/14 02:51:47;;;;;;;5.80;5.33;;;2.20;99.90;;;2.88;100.00;98393.88;10472780;28;20236;-67
2024/02/14 02:56:52;;;;;;;5.50;5.00;;;2.30;99.90;;;3.00;100.00;98394.16;10466348;28;20216;-67
2024/02/14 03:01:55;;;;;;;6.50;6.00;;;2.40;99.90;;;2.97;100.00;98377.06;10472965;28;20343;-67
2024/02/14 03:06:59;;;;;;;6.70;6.10;;;2.30;99.90;;;3.01;100.00;98381.69;10468656;28;20600;-67
2024/02/14 03:12:05;;;;;;;6.07;5.57;;;2.40;99.90;;;3.01;100.00;98376.63;10467831;28;20233;-70
2024/02/14 03:17:09;;;;;;;5.87;5.37;;;2.40;99.90;;;3.05;100.00;98373.66;10468445;28;20232;-66
2024/02/14 03:22:13;;;;;;;5.57;5.17;;;2.50;99.90;;;3.09;100.00;98365.63;10466168;28;20243;-67
2024/02/14 03:27:18;;;;;;;4.83;4.43;;;2.50;99.90;;;3.14;100.00;98366.03;10467299;28;20226;-67
2024/02/14 03:32:23;;;;;;;4.47;4.00;;;2.50;99.90;;;3.23;100.00;98359.31;10470057;28;20236;-67
2024/02/14 03:37:26;;;;;;;5.20;4.70;;;2.60;99.90;;;3.42;100.00;98339.19;10469375;28;20228;-67
2024/02/14 03:42:31;;;;;;;5.57;5.13;;;2.60;99.90;;;3.19;100.00;98347.16;10464652;28;20228;-66
2024/02/14 03:47:34;;;;;;;6.13;5.53;;;2.50;99.90;;;2.93;100.00;98348.13;10470535;28;20218;-67
2024/02/14 03:52:37;;;;;;;5.90;5.20;;;2.30;99.90;;;3.05;100.00;98373.66;10470740;28;20256;-67
2024/02/14 03:57:42;;;;;;;5.23;4.83;;;2.50;99.90;;;3.23;100.00;98383.69;10468337;28;20328;-68
2024/02/14 04:02:47;;;;;;;6.40;5.80;;;2.50;99.90;;;3.21;100.00;98385.19;10468221;28;20226;-67
2024/02/14 04:07:52;;;;;;;6.37;5.60;;;2.50;99.90;;;3.08;100.00;98394.13;10469713;28;20342;-67
2024/02/14 04:12:58;;;;;;;6.23;5.77;;;2.40;99.90;;;3.05;100.00;98388.78;10463187;28;20226;-67
2024/02/14 04:18:02;;;;;;;6.70;6.10;;;2.30;99.90;;;3.00;100.00;98399.19;10469830;28;20230;-67
2024/02/14 04:23:09;;;;;;;7.30;6.30;;;2.30;99.90;;;2.82;100.00;98403.41;10476448;28;20216;-67
2024/02/14 04:28:14;;;;;;;7.10;6.43;;;2.20;99.90;;;2.91;100.00;98419.41;10474529;28;20273;-68
2024/02/14 04:33:17;;;;;;;7.00;6.40;;;2.30;99.90;;;2.91;100.00;98397.59;10476519;28;20227;-67
2024/02/14 04:38:21;;;;;;;8.10;6.87;;;2.20;99.90;;;2.98;100.00;98396.56;10478260;28;20311;-68
2024/02/14 04:43:27;;;;;;;7.20;6.50;;;2.30;99.90;;;3.04;100.00;98397.13;10475792;28;20220;-67
2024/02/14 04:48:30;;;;;;;7.90;6.83;;;2.40;99.90;;;3.17;100.00;98399.16;10472588;28;20241;-67
2024/02/14 04:53:34;;;;;;;7.30;6.70;;;2.50;99.90;;;3.25;100.00;98390.66;10474426;28;20274;-68
2024/02/14 04:58:38;;;;;;;4.67;4.27;;;2.60;99.90;;;3.46;100.00;98396.81;10474484;28;20710;-67
2024/02/14 05:03:41;;;;;;;5.40;5.00;;;2.70;99.90;;;3.28;100.00;98390.94;10467613;28;20299;-67
2024/02/14 05:08:44;;;;;;;6.80;6.17;;;2.60;99.90;;;3.35;100.00;98390.78;10473503;28;20224;-68
2024/02/14 05:13:49;;;;;;;5.93;5.53;;;2.70;99.90;;;3.42;100.00;98396.41;10472964;28;20771;-67
2024/02/14 05:18:52;;;;;;;7.77;5.43;;;2.70;99.90;;;3.38;100.00;98396.13;10470272;28;20216;-67
2024/02/14 05:23:55;;;;;;;6.10;5.50;;;2.70;99.90;;;3.41;100.00;98407.28;10470863;28;20357;-67
2024/02/14 05:29:00;;;;;;;6.53;5.93;;;2.70;99.90;;;3.42;100.00;98420.03;10473922;28;20232;-67
2024/02/14 05:34:03;;;;;;;6.33;5.80;;;2.80;99.90;;;3.48;100.00;98420.59;10469926;28;20238;-67
2024/02/14 05:39:08;;;;;;;6.00;5.50;;;2.80;99.90;;;3.47;100.00;98426.41;10469155;28;20242;-68
2024/02/14 05:44:12;;;;;;;7.60;6.10;;;2.80;99.90;;;3.48;100.00;98423.13;10470807;28;20239;-67
2024/02/14 05:49:15;;;;;;;6.80;6.20;;;2.80;99.90;;;3.59;100.00;98431.72;10470671;28;20233;-67
2024/02/14 05:54:19;;;;;;;5.27;4.90;;;2.90;99.90;;;3.62;100.00;98432.00;10468899;28;20230;-67
2024/02/14 05:59:24;;;;;;;5.10;4.60;;;3.00;99.90;;;3.68;100.00;98422.44;10469852;28;20732;-68
2024/02/14 06:04:27;;;;;;;4.50;4.20;;;3.10;99.90;;;3.68;100.00;98429.16;10468151;28;20231;-67
2024/02/14 06:09:30;;;;;;;4.33;3.93;;;3.00;99.90;;;3.73;100.00;98426.28;10468733;28;20609;-68
2024/02/14 06:14:35;;;;;;;6.07;5.57;;;3.10;99.90;;;4.00;100.00;98421.97;10461779;28;20637;-67
2024/02/14 06:19:38;;;;;;;4.93;4.60;;;3.20;99.90;;;3.77;100.00;98427.47;10470323;28;20245;-66
2024/02/14 06:24:43;;;;;;;5.93;5.53;;;3.10;99.90;;;3.84;100.00;98410.47;10471617;28;20321;-66
2024/02/14 06:29:47;;;;;;;6.37;5.77;;;3.10;99.90;;;3.80;100.00;98410.03;10472607;28;20228;-67
2024/02/14 06:34:50;;;;;;;6.60;5.90;;;3.20;99.90;;;3.90;100.00;98415.22;10476619;28;20828;-66
2024/02/14 06:39:54;;;;;;;7.50;5.93;;;3.30;99.90;;;4.08;100.00;98421.03;10471975;28;20263;-66
2024/02/14 06:44:59;;;;;;;6.80;6.20;;;3.40;99.90;;;4.17;100.00;98415.94;10473128;28;20235;-66
2024/02/14 06:50:02;;;;;;;6.20;5.70;;;3.50;99.90;;;4.22;100.00;98410.53;10470128;28;20314;-66
2024/02/14 06:55:06;;;;;;;6.70;6.00;;;3.50;99.90;;;4.12;100.00;98417.16;10469893;28;21868;-66
2024/02/14 07:00:12;;;;;;;6.70;6.10;;;3.40;99.90;;;4.19;100.00;98432.16;10469982;28;20233;-66
2024/02/14 07:05:16;;;;;;;6.40;5.80;;;3.50;99.90;;;4.47;100.00;98428.81;10472857;28;20699;-67
2024/02/14 07:10:19;;;;;;;6.30;5.90;;;3.60;99.90;;;4.56;100.00;98430.41;10474553;28;20700;-68
2024/02/14 07:15:28;;;;;;;5.83;5.43;;;3.70;99.90;;;4.41;100.00;98438.41;10477608;28;21356;-67
2024/02/14 07:20:31;;;;;;;5.80;5.20;;;3.70;99.90;;;4.50;100.00;98429.09;10465205;28;20226;-67
2024/02/14 07:25:34;;;;;;;6.83;6.13;;;3.80;99.90;;;4.38;100.00;98433.06;10436564;22;22289;-63
2024/02/14 07:30:38;;;;;;;10.17;8.43;;;3.80;99.90;;;4.48;100.00;98435.66;10372746;28;20228;-63
2024/02/14 07:35:42;;;;;;;12.87;9.93;;;3.90;99.90;;;4.74;100.00;98439.63;10365026;28;20413;-63
2024/02/14 07:40:45;;;;;;;9.20;8.30;;;4.00;99.90;;;4.76;100.00;98442.28;10354369;28;20233;-66
2024/02/14 07:45:50;;;;;;;9.00;7.97;;;4.10;99.90;;;4.87;100.00;98454.28;10358626;28;20249;-65
2024/02/14 07:50:53;;;;;;;8.97;7.23;;;4.20;99.90;;;5.02;100.00;98452.19;10359984;28;20228;-63
2024/02/14 07:55:56;;;;;;;11.67;8.73;;;4.20;99.90;;;5.01;100.00;98452.94;10359237;28;20376;-63
2024/02/14 08:01:01;;;;;;;14.23;10.03;;;4.20;99.90;;;4.89;100.00;98445.13;10358253;28;20234;-65
2024/02/14 08:06:05;;;;;;;9.90;8.90;;;4.30;99.90;;;4.98;100.00;98461.19;10359648;28;20238;-63
2024/02/14 08:11:08;;;;;;;10.27;9.20;;;4.30;99.90;;;5.25;100.00;98471.94;10361393;28;20237;-65
2024/02/14 08:16:13;;;;;;;11.23;8.53;;;4.60;99.90;;;5.49;100.00;98485.84;10362917;28;20245;-63
2024/02/14 08:21:16;;;;;;;10.17;8.50;;;4.80;99.90;;;5.58;100.00;98479.03;10367453;28;20226;-64
2024/02/14 08:26:19;;;;;;;10.00;8.83;;;5.00;99.90;;;5.63;100.00;98478.66;10367024;28;20230;-65
2024/02/14 08:31:24;;;;;;;14.73;11.80;;;5.00;99.90;;;5.69;100.00;98483.38;10360229;28;20228;-64
2024/02/14 08:36:27;;;;;;;10.20;8.93;;;5.20;99.90;;;5.75;100.00;98473.78;10355190;28;20225;-63
2024/02/14 08:41:30;;;;;;;8.10;7.10;;;5.20;99.90;;;5.94;100.00;98486.41;10358384;28;20305;-62
2024/02/14 08:46:35;;;;;;;6.80;6.20;;;5.40;99.90;;;6.00;100.00;98474.22;10361339;28;20227;-64
2024/02/14 08:51:38;;;;;;;7.00;6.33;;;5.40;99.90;;;6.11;100.00;98475.13;10354505;28;20241;-64
2024/02/14 08:56:42;;;;;;;7.90;7.10;;;5.50;99.90;;;6.34;100.00;98479.59;10359852;28;20686;-64
2024/02/14 09:01:46;;;;;;;8.50;7.67;;;5.70;99.90;;;6.43;100.00;98469.31;10364561;28;20230;-64
2024/02/14 09:06:49;;;;;;;7.93;7.13;;;5.80;99.90;;;6.60;100.00;98466.50;10367169;28;20253;-63
2024/02/14 09:11:53;;;;;;;7.63;6.83;;;6.00;99.90;;;6.62;100.00;98470.06;10363096;28;20232;-63
2024/02/14 09:16:57;;;;;;;7.70;6.83;;;6.00;99.90;;;6.63;100.00;98476.91;10379561;28;20226;-62
2024/02/14 09:22:00;;;;;;;6.67;5.60;;;6.10;99.90;;;6.64;100.00;98463.47;10369358;28;20226;-63
2024/02/14 09:27:05;;;;;;;6.37;5.87;;;6.10;99.90;;;6.81;100.00;98469.03;10375032;28;20236;-64
2024/02/14 09:32:10;;;;;;;6.67;6.07;;;6.40;99.90;;;7.06;100.00;98462.63;10371710;28;20596;-65
2024/02/14 09:37:13;;;;;;;5.93;5.37;;;6.50;99.90;;;7.33;100.00;98465.59;10384866;28;20226;-64
2024/02/14 09:42:22;;;;;;;6.70;5.67;;;6.80;99.90;;;7.79;100.00;98466.66;10388617;28;20248;-64
2024/02/14 09:47:32;;;;;;;6.07;5.57;;;7.30;99.90;;;8.10;100.00;98473.34;10369876;28;20233;-63
2024/02/14 09:52:37;;;;;;;6.37;5.77;;;7.50;99.90;;;8.31;99.69;98478.28;10365046;28;20624;-63
2024/02/14 09:57:43;;;;;;;5.80;5.27;;;7.80;99.90;;;8.53;98.23;98479.16;10364340;28;20238;-64
2024/02/14 10:02:47;;;;;;;6.10;4.90;;;8.00;99.90;;;8.80;96.82;98474.31;10363042;28;20742;-64
2024/02/14 10:07:51;;;;;;;5.60;5.07;;;8.20;99.90;;;9.08;94.60;98463.59;10365388;28;20234;-64
2024/02/14 10:12:56;;;;;;;5.63;4.70;;;8.40;99.90;;;9.02;91.43;98467.47;10363681;28;20241;-62
2024/02/14 10:18:00;;;;;;;5.53;5.03;;;8.50;99.90;;;9.05;92.33;98460.84;10361002;28;22310;-64
2024/02/14 10:23:05;;;;;;;5.10;4.70;;;8.50;99.90;;;9.16;93.23;98455.72;10362787;28;20229;-64
2024/02/14 10:28:09;;;;;;;5.35;4.85;;;8.70;99.90;;;9.44;93.59;98461.16;10362353;28;20230;-66
2024/02/14 10:33:13;;;;;;;5.97;4.30;;;9.00;99.90;;;9.82;90.78;98460.38;10359266;28;20321;-64
2024/02/14 10:38:33;;;;;;;4.03;3.58;;;9.30;99.90;;;10.13;89.79;98454.84;10362030;28;20222;-64
2024/02/14 10:43:37;;;;;;;4.03;3.30;;;9.60;99.90;;;10.36;87.20;98448.78;10358701;28;20304;-64
2024/02/14 10:48:42;;;;;;;2.75;2.50;;;9.90;99.90;;;10.38;85.57;98445.50;10365821;28;20285;-64
2024/02/14 10:53:50;;;;;;;2.97;2.78;;;10.00;99.90;;;10.44;85.60;98446.72;10356279;28;20242;-65
2024/02/14 10:58:58;;;;;;;3.17;2.88;;;10.00;99.90;;;10.73;83.52;98431.66;10370539;28;20253;-64
2024/02/14 11:04:05;;;;;;;2.47;2.28;;;10.20;99.90;;;10.88;84.41;98430.88;10363042;28;20252;-64
2024/02/14 11:09:15;;;;;;;2.30;2.20;;;10.40;99.90;;;11.20;83.55;98431.25;10362343;28;20312;-63
2024/02/14 11:14:20;;;;;;;4.85;2.55;;;10.70;99.90;;;11.50;83.15;98428.84;10361686;28;20234;-64
2024/02/14 11:19:35;;;;;;;3.10;2.80;;;11.00;99.90;;;11.73;80.92;98428.63;10362192;28;20238;-65
2024/02/14 11:24:39;;;;;;;2.67;2.42;;;11.30;99.90;;;11.78;79.99;98422.91;10362017;28;20237;-65
2024/02/14 11:29:52;;;;;;;2.58;2.35;;;11.30;99.90;;;11.76;80.83;98424.47;10362167;28;20233;-64
2024/02/14 11:34:58;;;;;;;2.60;2.40;;;11.30;99.90;;;11.86;80.80;98411.47;10374852;28;20256;-64
2024/02/14 11:40:02;;;;;;;2.45;2.25;;;11.30;99.90;;;12.16;80.10;98423.59;10373817;28;20238;-64
2024/02/14 11:45:06;;;;;;;2.72;2.10;;;11.70;99.90;;;12.24;80.77;98420.56;10374890;28;20230;-64
2024/02/14 11:50:11;;;;;;;3.55;2.00;;;11.90;99.90;;;12.45;78.94;98421.88;10366156;28;20237;-66
2024/02/14 11:55:19;;;;;;;2.63;1.63;;;11.90;99.90;;;12.67;77.85;98417.97;10366441;28;20334;-64
2024/02/14 12:00:23;;;;;;;2.35;2.17;;;12.10;99.90;;;12.61;77.37;98419.38;10366807;28;20344;-65
2024/02/14 12:05:28;;;;;;;2.67;2.08;;;12.00;99.90;;;12.66;79.23;98411.06;10362392;28;20223;-65
2024/02/14 12:10:33;;;;;;;2.53;2.17;;;11.80;99.90;;;12.62;78.06;98410.91;10366051;28;20595;-65
2024/02/14 12:15:40;;;;;;;3.30;2.08;;;11.90;99.90;;;12.37;79.94;98417.97;10364421;28;20801;-65
2024/02/14 12:20:45;;;;;;;1.83;1.67;;;11.70;99.90;;;12.59;78.81;98415.84;10359557;28;20226;-65
2024/02/14 12:25:49;;;;;;;2.45;1.92;;;11.90;99.90;;;12.70;78.65;98423.28;10362512;28;20226;-65
2024/02/14 12:30:56;;;;;;;2.40;2.03;;;12.00;99.90;;;12.72;78.82;98417.44;10374907;28;20303;-65
2024/02/14 12:36:03;;;;;;;3.75;2.97;;;12.00;99.90;;;12.72;77.94;98416.56;10362379;28;20227;-65
2024/02/14 12:41:06;;;;;;;2.70;2.45;;;12.00;99.90;;;12.83;78.13;98415.50;10364711;28;20217;-65
2024/02/14 12:46:09;;;;;;;3.05;2.85;;;12.20;99.90;;;12.89;77.62;98420.97;10366850;28;20229;-67
2024/02/14 12:51:14;;;;;;;2.15;1.95;;;12.10;99.90;;;12.79;79.14;98418.66;10359026;28;20253;-65
2024/02/14 12:56:20;;;;;;;3.97;3.03;;;12.10;99.90;;;12.76;80.35;98424.53;10364150;28;20226;-63
2024/02/14 13:01:23;;;;;;;4.32;3.10;;;12.00;99.90;;;12.69;80.78;98431.78;10378619;28;20233;-65
2024/02/14 13:06:28;;;;;;;2.33;2.20;;;12.00;99.90;;;12.74;79.81;98425.22;10376956;28;20352;-63
2024/02/14 13:11:32;;;;;;;1.85;1.75;;;12.00;99.90;;;12.87;79.54;98414.84;10376085;28;20218;-64
2024/02/14 13:16:35;;;;;;;1.73;1.63;;;12.10;99.90;;;13.12;78.95;98406.00;10364442;28;20237;-66
2024/02/14 13:21:41;;;;;;;3.05;2.58;;;12.40;99.90;;;13.40;76.57;98401.63;10358309;28;20371;-66
2024/02/14 13:26:44;;;;;;;1.92;1.75;;;12.60;99.90;;;13.67;75.81;98391.06;10358106;28;20720;-64
2024/02/14 13:31:48;;;;;;;1.50;1.40;;;12.80;99.90;;;13.66;75.00;98389.28;10361232;28;20225;-64
2024/02/14 13:36:53;;;;;;;1.88;1.77;;;12.80;99.90;;;13.66;75.32;98384.16;10371909;28;20624;-64
2024/02/14 13:41:58;;;;;;;1.70;1.60;;;12.70;99.90;;;13.77;74.85;98383.03;10377410;28;20225;-64
2024/02/14 13:47:02;;;;;;;1.70;1.30;;;12.90;99.90;;;13.70;74.98;98375.78;10379390;28;20317;-64
2024/02/14 13:52:07;;;;;;;1.95;1.40;;;12.80;99.90;;;13.53;75.95;98385.16;10372564;28;20221;-65
2024/02/14 13:57:11;;;;;;;2.47;1.40;;;12.70;99.90;;;13.58;75.67;98385.44;10368091;28;20234;-64
2024/02/14 14:02:14;;;;;;;1.38;1.27;;;12.80;99.90;;;13.64;74.92;98390.88;10373833;28;20870;-64
2024/02/14 14:07:19;;;;;;;1.60;1.50;;;12.80;99.90;;;13.58;75.97;98390.56;10374350;28;20237;-64
2024/02/14 14:12:22;;;;;;;2.47;1.75;;;12.80;99.90;;;13.68;76.05;98382.56;10374563;28;20236;-64
2024/02/14 14:17:26;;;;;;;2.22;2.00;;;12.80;99.90;;;13.92;74.86;98368.41;10372786;28;20240;-64
2024/02/14 14:22:30;;;;;;;1.75;1.35;;;13.10;99.90;;;13.98;74.43;98383.28;10370008;28;20592;-64
2024/02/14 14:27:33;;;;;;;1.42;1.33;;;13.20;99.90;;;13.90;74.88;98385.44;10374210;28;20720;-64
2024/02/14 14:32:37;;;;;;;2.72;1.50;;;13.20;99.90;;;13.88;75.22;98381.06;10364760;28;20229;-64
2024/02/14 14:37:42;;;;;;;1.40;1.30;;;13.10;99.90;;;13.95;75.35;98380.56;10358755;28;20620;-64
2024/02/14 14:42:45;;;;;;;1.52;1.42;;;13.20;99.90;;;13.76;75.34;98378.69;10359490;28;20664;-64
2024/02/14 14:47:48;;;;;;;1.60;1.50;;;13.10;99.90;;;13.80;75.42;98379.75;10358002;28;20721;-64
2024/02/14 14:52:53;;;;;;;1.63;1.35;;;13.00;99.90;;;13.70;76.14;98388.63;10453378;22;20220;-66
2024/02/14 14:57:57;;;;;;;1.70;1.50;;;12.90;99.90;;;13.64;76.35;98373.78;10466176;28;20223;-66
2024/02/14 15:03:00;;;;;;;1.63;1.52;;;12.80;99.90;;;13.55;77.66;98375.00;10463184;28;20701;-66
2024/02/14 15:08:05;;;;;;;1.45;1.30;;;12.70;99.90;;;13.47;78.76;98383.16;10464308;28;20250;-67
2024/02/14 15:13:09;;;;;;;2.17;2.08;;;12.60;99.90;;;13.43;80.16;98391.50;10462060;28;20776;-65
2024/02/14 15:18:12;;;;;;;2.50;1.63;;;12.60;99.90;;;13.38;80.06;98385.22;10463604;28;20334;-66
2024/02/14 15:23:17;;;;;;;1.90;1.80;;;12.60;99.90;;;13.31;80.96;98384.84;10465652;28;20323;-65
2024/02/14 15:28:26;;;;;;;1.60;1.50;;;12.50;99.90;;;13.32;81.34;98382.34;10458612;28;20232;-66
2024/02/14 15:33:30;;;;;;;2.30;2.20;;;12.50;99.90;;;13.26;81.94;98379.44;10458549;28;20293;-66
2024/02/14 15:38:34;;;;;;;2.08;1.90;;;12.50;99.90;;;13.20;82.17;98372.25;10463315;28;21840;-66
2024/02/14 15:43:38;;;;;;;2.45;2.25;;;12.40;99.90;;;13.12;82.45;98372.63;10460288;28;20239;-65
2024/02/14 15:48:41;;;;;;;1.88;1.77;;;12.30;99.90;;;13.03;83.07;98378.13;10461166;28;20593;-66
2024/02/14 15:53:46;;;;;;;1.98;1.88;;;12.20;99.90;;;13.01;84.01;98387.41;10461899;28;20239;-66
2024/02/14 15:58:49;;;;;;;3.97;3.35;;;12.10;99.90;;;12.91;85.59;98393.72;10459012;28;20228;-67
2024/02/14 16:03:52;;;;;;;3.63;3.15;;;12.10;99.90;;;12.84;84.93;98392.47;10461613;28;20231;-67
2024/02/14 16:08:58;;;;;;;3.13;2.85;;;12.00;99.90;;;12.77;85.53;98394.63;10460335;28;20235;-66
2024/02/14 16:14:01;;;;;;;3.40;2.88;;;11.90;99.90;;;12.70;87.04;98397.63;10466366;28;20603;-66
2024/02/14 16:19:05;;;;;;;4.00;3.65;;;11.90;99.90;;;12.59;88.07;98394.44;10463868;28;20593;-67
2024/02/14 16:24:10;;;;;;;4.53;4.13;;;11.70;99.90;;;12.52;88.84;98388.06;10462849;28;20231;-67
2024/02/14 16:29:13;;;;;;;5.55;5.05;;;11.60;99.90;;;12.39;90.15;98390.75;10461703;28;20373;-67
2024/02/14 16:34:16;;;;;;;6.47;5.90;;;11.50;99.90;;;12.35;89.84;98388.78;10462945;28;20511;-67
2024/02/14 16:39:21;;;;;;;5.88;5.18;;;11.50;99.90;;;12.30;91.16;98392.75;10454381;28;20691;-67
2024/02/14 16:44:43;;;;;;;8.80;7.10;;;11.40;99.90;;;12.25;90.60;98391.63;10467527;28;20224;-67
2024/02/14 16:49:46;;;;;;;8.20;6.50;;;11.40;99.90;;;12.20;90.90;98399.00;10464266;28;20285;-67
2024/02/14 16:54:51;;;;;;;5.75;4.90;;;11.40;99.90;;;12.10;91.02;98397.59;10463071;28;20232;-67
2024/02/14 16:59:55;;;;;;;4.57;4.18;;;11.30;99.90;;;12.02;92.48;98398.81;10465785;28;20701;-67
2024/02/14 17:04:58;;;;;;;5.90;5.38;;;11.20;99.90;;;11.95;92.62;98401.78;10462000;28;20761;-68
2024/02/14 17:10:04;;;;;;;7.00;6.35;;;11.10;99.90;;;11.95;93.25;98412.03;10464408;28;20225;-68
2024/02/14 17:15:09;;;;;;;6.60;6.00;;;11.10;99.90;;;11.91;93.20;98410.09;10468449;28;20321;-68
2024/02/14 17:20:13;;;;;;;8.77;8.02;;;11.10;99.90;;;11.88;94.00;98412.47;10468270;28;20601;-66
2024/02/14 17:25:18;;;;;;;8.55;7.85;;;11.10;99.90;;;11.85;93.78;98419.94;10472456;28;20715;-66
2024/02/14 17:30:22;;;;;;;8.77;7.88;;;11.10;99.90;;;11.86;93.26;98416.59;10463200;28;20734;-67
2024/02/14 17:35:28;;;;;;;10.55;9.65;;;11.00;99.90;;;11.77;94.47;98424.56;10470501;28;20931;-67
2024/02/14 17:40:32;;;;;;;8.45;7.80;;;11.00;99.90;;;11.75;94.72;98425.28;10482111;28;20246;-67
2024/02/14 17:45:36;;;;;;;7.47;6.90;;;11.00;99.90;;;11.63;95.17;98421.16;10474169;28;20222;-67
2024/02/14 17:50:40;;;;;;;7.43;6.72;;;10.90;99.90;;;11.64;95.60;98420.34;10472594;28;20228;-67
2024/02/14 17:55:48;;;;;;;7.75;7.15;;;10.90;99.90;;;11.61;95.46;98425.28;10460167;28;20224;-67
2024/02/14 18:00:51;;;;;;;7.05;6.47;;;10.80;99.90;;;11.57;96.01;98418.22;10476446;28;20230;-67
2024/02/14 18:05:54;;;;;;;10.80;9.90;;;10.80;99.90;;;11.55;96.33;98419.78;10478888;28;20309;-66
2024/02/14 18:10:59;;;;;;;18.33;16.73;;;10.70;99.90;;;11.52;96.75;98411.03;10479636;28;20614;-67
2024/02/14 18:16:02;;;;;;;22.98;21.10;;;10.70;99.90;;;11.45;97.76;98414.91;10477367;28;20228;-72
2024/02/14 18:21:07;;;;;;;15.93;14.60;;;10.60;99.90;;;11.45;97.49;98420.03;10467381;28;20665;-67
2024/02/14 18:26:11;;;;;;;10.32;9.43;;;10.70;99.90;;;11.41;97.99;98430.84;10470362;28;20225;-67
2024/02/14 18:31:15;;;;;;;7.20;6.60;;;10.70;99.90;;;11.42;97.85;98424.97;10474677;28;20597;-67
2024/02/14 18:36:19;;;;;;;16.25;14.95;;;10.70;99.90;;;11.41;98.04;98421.50;10471001;28;20224;-67
2024/02/14 18:41:23;;;;;;;13.43;12.43;;;10.60;99.90;;;11.33;98.84;98432.03;10471902;28;20274;-67
2024/02/14 18:46:26;;;;;;;7.70;7.10;;;10.60;99.90;;;11.32;99.29;98430.28;10472265;28;20793;-66
2024/02/14 18:51:29;;;;;;;7.95;7.25;;;10.40;99.90;;;11.16;100.00;98429.31;10472301;28;20231;-67
2024/02/14 18:56:34;;;;;;;8.18;7.47;;;10.40;99.90;;;11.14;100.00;98433.44;10467256;28;20384;-66
2024/02/14 19:01:38;;;;;;;8.93;8.23;;;10.40;99.90;;;11.15;100.00;98432.63;10467312;28;20224;-67
2024/02/14 19:06:42;;;;;;;9.15;8.25;;;10.30;99.90;;;11.04;100.00;98438.72;10471348;28;20230;-66
2024/02/14 19:11:47;;;;;;;8.50;7.80;;;10.30;99.90;;;10.96;100.00;98437.34;10464510;28;20232;-66
2024/02/14 19:16:50;;;;;;;8.27;7.50;;;10.20;99.90;;;10.92;100.00;98435.41;10471881;28;20252;-67
2024/02/14 19:21:53;;;;;;;9.02;8.13;;;10.20;99.90;;;10.87;100.00;98436.75;10466106;28;20757;-67
2024/02/14 19:26:58;;;;;;;8.88;8.13;;;10.20;99.90;;;10.83;100.00;98433.13;10470221;28;20228;-67
2024/02/14 19:32:01;;;;;;;13.32;12.05;;;10.10;99.90;;;10.78;100.00;98421.72;10468649;28;20309;-67
2024/02/14 19:37:04;;;;;;;12.68;11.48;;;10.10;99.90;;;10.72;100.00;98429.84;10467575;28;20306;-66
2024/02/14 19:42:09;;;;;;;9.00;8.20;;;10.00;99.90;;;10.66;100.00;98414.13;10470393;28;20413;-68
2024/02/14 19:47:12;;;;;;;7.63;7.03;;;10.00;99.90;;;10.65;100.00;98422.59;10469787;28;20275;-67
2024/02/14 19:52:15;;;;;;;8.25;7.18;;;10.00;99.90;;;10.63;100.00;98418.16;10475325;28;20220;-67
2024/02/14 19:57:20;;;;;;;7.13;6.47;;;9.90;99.90;;;10.60;100.00;98418.84;10475611;28;20232;-67
2024/02/14 20:02:24;;;;;;;7.30;6.70;;;9.80;99.90;;;10.51;100.00;98423.34;10472041;28;20228;-66
2024/02/14 20:07:27;;;;;;;7.88;7.07;;;9.80;99.90;;;10.47;100.00;98421.34;10474629;28;20235;-67
2024/02/14 20:12:34;;;;;;;6.43;5.93;;;9.70;99.90;;;10.37;100.00;98425.88;10473953;28;20236;-67
2024/02/14 20:17:38;;;;;;;7.00;6.30;;;9.70;99.90;;;10.31;100.00;98417.78;10476159;28;20228;-67
2024/02/14 20:22:42;;;;;;;6.82;6.10;;;9.60;99.90;;;10.18;100.00;98419.38;10478177;28;20290;-66
2024/02/14 20:27:49;;;;;;;6.57;5.97;;;9.50;99.90;;;10.14;100.00;98410.63;10477272;28;20223;-66
2024/02/14 20:32:52;;;;;;;6.32;5.72;;;9.40;99.90;;;10.07;100.00;98405.88;10473694;28;20731;-66
2024/02/14 20:37:56;;;;;;;6.15;5.55;;;9.30;99.90;;;10.03;100.00;98406.47;10471524;28;20227;-66
2024/02/14 20:43:00;;;;;;;5.47;5.05;;;9.30;99.90;;;9.96;100.00;98419.59;10473904;28;20231;-66
2024/02/14 20:48:05;;;;;;;6.05;5.55;;;9.20;99.90;;;9.92;100.00;98411.72;10472343;28;20224;-66
2024/02/14 20:53:09;;;;;;;4.78;4.38;;;9.20;99.90;;;9.88;100.00;98403.75;10474155;28;20233;-66
2024/02/14 20:58:14;;;;;;;4.75;4.35;;;9.10;99.90;;;9.90;100.00;98404.72;10472277;28;20770;-67
2024/02/14 21:03:18;;;;;;;4.40;4.10;;;9.20;99.90;;;9.89;100.00;98410.63;10470859;28;20335;-66
2024/02/14 21:08:21;;;;;;;4.60;4.30;;;9.20;99.90;;;9.91;100.00;98417.63;10472545;28;20228;-66
2024/02/14 21:13:26;;;;;;;4.75;4.35;;;9.20;99.90;;;9.89;100.00;98416.63;10474871;28;20638;-67